sensor_id;sensor_type;location;lat;lon;timestamp;P1;durP1;ratioP1;P2;durP2;ratioP2
52918;SDS011;38793;52.690;6.812;2023-07-28T00:00:12;34.50;;;22.38;;
52918;SDS011;38793;52.690;6.812;2023-07-28T00:02:38;43.60;;;23.55;;
52918;SDS011;38793;52.690;6.812;2023-07-28T00:05:04;38.95;;;22.13;;
52918;SDS011;38793;52.690;6.812;2023-07-28T00:07:29;33.58;;;22.30;;
52918;SDS011;38793;52.690;6.812;2023-07-28T00:09:55;29.98;;;20.33;;
52918;SDS011;38793;52.690;6.812;2023-07-28T00:12:21;34.78;;;20.10;;
52918;SDS011;38793;52.690;6.812;2023-07-28T00:17:12;32.17;;;20.67;;
52918;SDS011;38793;52.690;6.812;2023-07-28T00:19:38;31.70;;;19.10;;
52918;SDS011;38793;52.690;6.812;2023-07-28T00:22:03;34.53;;;20.67;;
52918;SDS011;38793;52.690;6.812;2023-07-28T00:24:29;31.55;;;21.20;;
52918;SDS011;38793;52.690;6.812;2023-07-28T00:26:54;37.15;;;20.83;;
52918;SDS011;38793;52.690;6.812;2023-07-28T00:29:20;38.33;;;21.33;;
52918;SDS011;38793;52.690;6.812;2023-07-28T00:31:46;36.65;;;20.77;;
52918;SDS011;38793;52.690;6.812;2023-07-28T00:34:11;38.05;;;21.42;;
52918;SDS011;38793;52.690;6.812;2023-07-28T00:36:37;45.78;;;22.70;;
52918;SDS011;38793;52.690;6.812;2023-07-28T00:39:03;35.65;;;21.80;;
52918;SDS011;38793;52.690;6.812;2023-07-28T00:41:28;36.88;;;20.25;;
52918;SDS011;38793;52.690;6.812;2023-07-28T00:43:54;35.38;;;21.33;;
52918;SDS011;38793;52.690;6.812;2023-07-28T00:46:19;33.22;;;20.88;;
52918;SDS011;38793;52.690;6.812;2023-07-28T00:51:11;37.33;;;20.45;;
52918;SDS011;38793;52.690;6.812;2023-07-28T00:53:37;32.90;;;20.27;;
52918;SDS011;38793;52.690;6.812;2023-07-28T00:56:04;35.83;;;20.58;;
52918;SDS011;38793;52.690;6.812;2023-07-28T00:58:30;30.98;;;19.83;;
52918;SDS011;38793;52.690;6.812;2023-07-28T01:00:56;31.20;;;20.15;;
52918;SDS011;38793;52.690;6.812;2023-07-28T01:03:22;30.05;;;20.08;;
52918;SDS011;38793;52.690;6.812;2023-07-28T01:11:22;35.50;;;19.20;;
52918;SDS011;38793;52.690;6.812;2023-07-28T01:13:48;30.92;;;20.13;;
52918;SDS011;38793;52.690;6.812;2023-07-28T01:16:13;32.90;;;21.00;;
52918;SDS011;38793;52.690;6.812;2023-07-28T01:18:40;36.85;;;21.23;;
52918;SDS011;38793;52.690;6.812;2023-07-28T01:21:06;32.30;;;19.92;;
52918;SDS011;38793;52.690;6.812;2023-07-28T01:23:37;31.25;;;19.38;;
52918;SDS011;38793;52.690;6.812;2023-07-28T01:26:25;31.33;;;19.88;;
52918;SDS011;38793;52.690;6.812;2023-07-28T01:29:00;32.38;;;19.10;;
52918;SDS011;38793;52.690;6.812;2023-07-28T01:31:26;36.50;;;20.00;;
52918;SDS011;38793;52.690;6.812;2023-07-28T01:33:52;35.83;;;20.52;;
52918;SDS011;38793;52.690;6.812;2023-07-28T01:36:18;38.08;;;19.77;;
52918;SDS011;38793;52.690;6.812;2023-07-28T01:38:43;33.92;;;19.50;;
52918;SDS011;38793;52.690;6.812;2023-07-28T01:41:09;31.38;;;18.65;;
52918;SDS011;38793;52.690;6.812;2023-07-28T01:43:34;33.65;;;19.95;;
52918;SDS011;38793;52.690;6.812;2023-07-28T01:46:00;35.25;;;18.15;;
52918;SDS011;38793;52.690;6.812;2023-07-28T01:48:26;35.33;;;20.58;;
52918;SDS011;38793;52.690;6.812;2023-07-28T01:50:51;36.78;;;19.60;;
52918;SDS011;38793;52.690;6.812;2023-07-28T01:53:17;42.55;;;20.02;;
52918;SDS011;38793;52.690;6.812;2023-07-28T01:55:43;29.40;;;18.38;;
52918;SDS011;38793;52.690;6.812;2023-07-28T01:58:08;33.63;;;18.83;;
52918;SDS011;38793;52.690;6.812;2023-07-28T02:00:34;28.63;;;19.17;;
52918;SDS011;38793;52.690;6.812;2023-07-28T02:03:00;29.30;;;18.20;;
52918;SDS011;38793;52.690;6.812;2023-07-28T02:05:27;29.75;;;19.63;;
52918;SDS011;38793;52.690;6.812;2023-07-28T02:07:54;33.65;;;18.25;;
52918;SDS011;38793;52.690;6.812;2023-07-28T02:10:21;37.35;;;18.65;;
52918;SDS011;38793;52.690;6.812;2023-07-28T02:12:47;26.63;;;19.13;;
52918;SDS011;38793;52.690;6.812;2023-07-28T02:15:13;32.88;;;18.73;;
52918;SDS011;38793;52.690;6.812;2023-07-28T02:17:38;32.78;;;20.52;;
52918;SDS011;38793;52.690;6.812;2023-07-28T02:20:04;32.88;;;17.95;;
52918;SDS011;38793;52.690;6.812;2023-07-28T02:22:30;28.48;;;17.58;;
52918;SDS011;38793;52.690;6.812;2023-07-28T02:24:56;28.23;;;18.85;;
52918;SDS011;38793;52.690;6.812;2023-07-28T02:27:26;29.27;;;17.67;;
52918;SDS011;38793;52.690;6.812;2023-07-28T02:29:52;27.92;;;16.42;;
52918;SDS011;38793;52.690;6.812;2023-07-28T02:32:17;30.48;;;18.08;;
52918;SDS011;38793;52.690;6.812;2023-07-28T02:34:43;30.83;;;18.30;;
52918;SDS011;38793;52.690;6.812;2023-07-28T02:37:08;26.30;;;16.48;;
52918;SDS011;38793;52.690;6.812;2023-07-28T02:39:34;25.45;;;16.95;;
52918;SDS011;38793;52.690;6.812;2023-07-28T02:42:00;26.50;;;16.38;;
52918;SDS011;38793;52.690;6.812;2023-07-28T02:44:26;24.60;;;16.13;;
52918;SDS011;38793;52.690;6.812;2023-07-28T02:46:51;29.60;;;17.00;;
52918;SDS011;38793;52.690;6.812;2023-07-28T02:49:17;26.85;;;16.60;;
52918;SDS011;38793;52.690;6.812;2023-07-28T02:51:43;24.80;;;16.17;;
52918;SDS011;38793;52.690;6.812;2023-07-28T02:54:08;24.45;;;15.50;;
52918;SDS011;38793;52.690;6.812;2023-07-28T02:56:35;27.33;;;15.40;;
52918;SDS011;38793;52.690;6.812;2023-07-28T02:59:03;20.55;;;14.93;;
52918;SDS011;38793;52.690;6.812;2023-07-28T03:01:32;28.52;;;15.68;;
52918;SDS011;38793;52.690;6.812;2023-07-28T03:04:01;24.38;;;15.60;;
52918;SDS011;38793;52.690;6.812;2023-07-28T03:06:27;24.70;;;16.60;;
52918;SDS011;38793;52.690;6.812;2023-07-28T03:08:53;27.92;;;15.82;;
52918;SDS011;38793;52.690;6.812;2023-07-28T03:11:18;29.70;;;16.27;;
52918;SDS011;38793;52.690;6.812;2023-07-28T03:13:44;24.77;;;15.13;;
52918;SDS011;38793;52.690;6.812;2023-07-28T03:16:10;29.55;;;16.40;;
52918;SDS011;38793;52.690;6.812;2023-07-28T03:18:35;23.65;;;15.32;;
52918;SDS011;38793;52.690;6.812;2023-07-28T03:21:01;26.67;;;16.45;;
52918;SDS011;38793;52.690;6.812;2023-07-28T03:23:27;27.75;;;16.63;;
52918;SDS011;38793;52.690;6.812;2023-07-28T03:25:52;32.28;;;16.75;;
52918;SDS011;38793;52.690;6.812;2023-07-28T03:28:18;27.83;;;16.05;;
52918;SDS011;38793;52.690;6.812;2023-07-28T03:30:44;24.83;;;15.25;;
52918;SDS011;38793;52.690;6.812;2023-07-28T03:33:09;29.08;;;16.25;;
52918;SDS011;38793;52.690;6.812;2023-07-28T03:35:35;24.10;;;16.48;;
52918;SDS011;38793;52.690;6.812;2023-07-28T03:38:00;27.23;;;16.13;;
52918;SDS011;38793;52.690;6.812;2023-07-28T03:40:26;25.92;;;16.23;;
52918;SDS011;38793;52.690;6.812;2023-07-28T03:42:52;23.90;;;16.40;;
52918;SDS011;38793;52.690;6.812;2023-07-28T03:45:17;22.95;;;15.50;;
52918;SDS011;38793;52.690;6.812;2023-07-28T03:47:43;27.30;;;16.85;;
52918;SDS011;38793;52.690;6.812;2023-07-28T03:50:09;24.08;;;15.50;;
52918;SDS011;38793;52.690;6.812;2023-07-28T03:52:34;27.27;;;15.60;;
52918;SDS011;38793;52.690;6.812;2023-07-28T03:55:00;22.63;;;16.30;;
52918;SDS011;38793;52.690;6.812;2023-07-28T03:57:26;29.80;;;17.33;;
52918;SDS011;38793;52.690;6.812;2023-07-28T03:59:52;26.10;;;16.92;;
52918;SDS011;38793;52.690;6.812;2023-07-28T04:02:17;26.35;;;17.08;;
52918;SDS011;38793;52.690;6.812;2023-07-28T04:04:43;26.42;;;16.45;;
52918;SDS011;38793;52.690;6.812;2023-07-28T04:07:09;23.77;;;16.05;;
52918;SDS011;38793;52.690;6.812;2023-07-28T04:09:34;25.83;;;16.58;;
52918;SDS011;38793;52.690;6.812;2023-07-28T04:12:00;28.17;;;17.38;;
52918;SDS011;38793;52.690;6.812;2023-07-28T04:14:25;34.70;;;17.35;;
52918;SDS011;38793;52.690;6.812;2023-07-28T04:16:51;26.45;;;16.42;;
52918;SDS011;38793;52.690;6.812;2023-07-28T04:19:16;24.67;;;16.85;;
52918;SDS011;38793;52.690;6.812;2023-07-28T04:21:42;28.42;;;16.88;;
52918;SDS011;38793;52.690;6.812;2023-07-28T04:24:08;29.88;;;18.40;;
52918;SDS011;38793;52.690;6.812;2023-07-28T04:26:34;27.55;;;18.02;;
52918;SDS011;38793;52.690;6.812;2023-07-28T04:29:00;29.42;;;18.05;;
52918;SDS011;38793;52.690;6.812;2023-07-28T04:31:27;30.92;;;18.38;;
52918;SDS011;38793;52.690;6.812;2023-07-28T04:33:52;30.08;;;18.10;;
52918;SDS011;38793;52.690;6.812;2023-07-28T04:36:18;27.70;;;17.58;;
52918;SDS011;38793;52.690;6.812;2023-07-28T04:38:43;30.75;;;18.67;;
52918;SDS011;38793;52.690;6.812;2023-07-28T04:41:09;36.20;;;18.50;;
52918;SDS011;38793;52.690;6.812;2023-07-28T04:43:34;24.75;;;17.77;;
52918;SDS011;38793;52.690;6.812;2023-07-28T04:46:00;24.70;;;17.23;;
52918;SDS011;38793;52.690;6.812;2023-07-28T04:48:26;28.45;;;17.67;;
52918;SDS011;38793;52.690;6.812;2023-07-28T04:50:52;27.95;;;16.92;;
52918;SDS011;38793;52.690;6.812;2023-07-28T04:53:18;30.60;;;17.98;;
52918;SDS011;38793;52.690;6.812;2023-07-28T04:55:44;33.33;;;18.45;;
52918;SDS011;38793;52.690;6.812;2023-07-28T04:58:09;29.45;;;17.77;;
52918;SDS011;38793;52.690;6.812;2023-07-28T05:00:35;24.25;;;16.70;;
52918;SDS011;38793;52.690;6.812;2023-07-28T05:03:00;29.23;;;17.55;;
52918;SDS011;38793;52.690;6.812;2023-07-28T05:05:26;27.35;;;17.83;;
52918;SDS011;38793;52.690;6.812;2023-07-28T05:07:54;29.30;;;17.02;;
52918;SDS011;38793;52.690;6.812;2023-07-28T05:10:19;28.23;;;18.73;;
52918;SDS011;38793;52.690;6.812;2023-07-28T05:12:45;28.55;;;18.52;;
52918;SDS011;38793;52.690;6.812;2023-07-28T05:15:11;38.55;;;18.25;;
52918;SDS011;38793;52.690;6.812;2023-07-28T05:17:38;29.85;;;18.00;;
52918;SDS011;38793;52.690;6.812;2023-07-28T05:20:04;30.67;;;18.83;;
52918;SDS011;38793;52.690;6.812;2023-07-28T05:24:55;31.45;;;18.70;;
52918;SDS011;38793;52.690;6.812;2023-07-28T05:27:22;29.85;;;18.05;;
52918;SDS011;38793;52.690;6.812;2023-07-28T05:29:48;30.00;;;18.42;;
52918;SDS011;38793;52.690;6.812;2023-07-28T05:32:13;36.00;;;18.30;;
52918;SDS011;38793;52.690;6.812;2023-07-28T05:34:41;31.35;;;19.45;;
52918;SDS011;38793;52.690;6.812;2023-07-28T05:37:08;27.95;;;18.23;;
52918;SDS011;38793;52.690;6.812;2023-07-28T05:39:33;34.28;;;19.45;;
52918;SDS011;38793;52.690;6.812;2023-07-28T05:41:59;33.17;;;19.13;;
52918;SDS011;38793;52.690;6.812;2023-07-28T05:44:25;30.27;;;17.83;;
52918;SDS011;38793;52.690;6.812;2023-07-28T05:46:50;32.83;;;18.30;;
52918;SDS011;38793;52.690;6.812;2023-07-28T05:49:16;29.50;;;19.40;;
52918;SDS011;38793;52.690;6.812;2023-07-28T05:51:41;31.30;;;19.40;;
52918;SDS011;38793;52.690;6.812;2023-07-28T05:54:07;30.25;;;19.17;;
52918;SDS011;38793;52.690;6.812;2023-07-28T05:56:33;34.05;;;19.35;;
52918;SDS011;38793;52.690;6.812;2023-07-28T05:58:59;40.03;;;20.45;;
52918;SDS011;38793;52.690;6.812;2023-07-28T06:01:24;31.73;;;20.98;;
52918;SDS011;38793;52.690;6.812;2023-07-28T06:03:52;27.15;;;18.38;;
52918;SDS011;38793;52.690;6.812;2023-07-28T06:06:20;28.60;;;18.50;;
52918;SDS011;38793;52.690;6.812;2023-07-28T06:08:47;27.77;;;17.65;;
52918;SDS011;38793;52.690;6.812;2023-07-28T06:11:12;24.90;;;17.85;;
52918;SDS011;38793;52.690;6.812;2023-07-28T06:16:03;22.38;;;15.93;;
52918;SDS011;38793;52.690;6.812;2023-07-28T06:18:29;27.30;;;17.85;;
52918;SDS011;38793;52.690;6.812;2023-07-28T06:20:54;29.35;;;16.48;;
52918;SDS011;38793;52.690;6.812;2023-07-28T06:25:45;26.67;;;16.42;;
52918;SDS011;38793;52.690;6.812;2023-07-28T06:28:11;26.67;;;15.93;;
52918;SDS011;38793;52.690;6.812;2023-07-28T06:30:37;25.27;;;16.05;;
52918;SDS011;38793;52.690;6.812;2023-07-28T06:35:32;22.58;;;16.90;;
52918;SDS011;38793;52.690;6.812;2023-07-28T06:40:24;26.60;;;16.07;;
52918;SDS011;38793;52.690;6.812;2023-07-28T06:42:50;28.55;;;16.60;;
52918;SDS011;38793;52.690;6.812;2023-07-28T06:47:41;25.30;;;16.77;;
52918;SDS011;38793;52.690;6.812;2023-07-28T06:50:08;23.20;;;16.55;;
52918;SDS011;38793;52.690;6.812;2023-07-28T06:52:33;27.80;;;16.55;;
52918;SDS011;38793;52.690;6.812;2023-07-28T06:54:59;30.15;;;16.58;;
52918;SDS011;38793;52.690;6.812;2023-07-28T06:57:25;25.92;;;15.65;;
52918;SDS011;38793;52.690;6.812;2023-07-28T07:02:16;20.15;;;14.27;;
52918;SDS011;38793;52.690;6.812;2023-07-28T07:04:42;22.90;;;14.23;;
52918;SDS011;38793;52.690;6.812;2023-07-28T07:07:08;20.33;;;12.77;;
52918;SDS011;38793;52.690;6.812;2023-07-28T07:09:34;21.30;;;14.32;;
52918;SDS011;38793;52.690;6.812;2023-07-28T07:11:59;20.73;;;14.27;;
52918;SDS011;38793;52.690;6.812;2023-07-28T07:16:51;13.85;;;12.50;;
52918;SDS011;38793;52.690;6.812;2023-07-28T07:21:42;19.23;;;12.45;;
52918;SDS011;38793;52.690;6.812;2023-07-28T07:24:09;16.55;;;11.63;;
52918;SDS011;38793;52.690;6.812;2023-07-28T07:26:35;18.75;;;13.20;;
52918;SDS011;38793;52.690;6.812;2023-07-28T07:29:00;22.42;;;13.75;;
52918;SDS011;38793;52.690;6.812;2023-07-28T07:31:26;15.55;;;12.18;;
52918;SDS011;38793;52.690;6.812;2023-07-28T07:33:52;23.35;;;13.77;;
52918;SDS011;38793;52.690;6.812;2023-07-28T07:38:43;23.05;;;13.63;;
52918;SDS011;38793;52.690;6.812;2023-07-28T07:41:14;17.55;;;12.63;;
52918;SDS011;38793;52.690;6.812;2023-07-28T07:43:44;22.20;;;13.45;;
52918;SDS011;38793;52.690;6.812;2023-07-28T07:46:10;20.08;;;12.38;;
52918;SDS011;38793;52.690;6.812;2023-07-28T07:51:01;17.45;;;12.23;;
52918;SDS011;38793;52.690;6.812;2023-07-28T07:53:26;23.60;;;14.63;;
52918;SDS011;38793;52.690;6.812;2023-07-28T07:55:52;19.35;;;12.43;;
52918;SDS011;38793;52.690;6.812;2023-07-28T07:58:18;22.00;;;12.52;;
52918;SDS011;38793;52.690;6.812;2023-07-28T08:03:09;12.98;;;10.77;;
52918;SDS011;38793;52.690;6.812;2023-07-28T08:08:00;18.92;;;11.25;;
52918;SDS011;38793;52.690;6.812;2023-07-28T08:12:51;14.40;;;10.52;;
52918;SDS011;38793;52.690;6.812;2023-07-28T08:15:18;15.85;;;10.95;;
52918;SDS011;38793;52.690;6.812;2023-07-28T08:17:44;18.67;;;10.80;;
52918;SDS011;38793;52.690;6.812;2023-07-28T08:20:10;15.30;;;10.60;;
52918;SDS011;38793;52.690;6.812;2023-07-28T08:25:01;11.38;;;8.85;;
52918;SDS011;38793;52.690;6.812;2023-07-28T08:29:52;17.80;;;9.90;;
52918;SDS011;38793;52.690;6.812;2023-07-28T08:34:43;13.43;;;9.65;;
52918;SDS011;38793;52.690;6.812;2023-07-28T08:39:34;14.57;;;8.45;;
52918;SDS011;38793;52.690;6.812;2023-07-28T08:44:29;15.82;;;9.32;;
52918;SDS011;38793;52.690;6.812;2023-07-28T08:46:57;12.52;;;8.25;;
52918;SDS011;38793;52.690;6.812;2023-07-28T08:51:48;14.23;;;6.55;;
52918;SDS011;38793;52.690;6.812;2023-07-28T08:54:17;16.77;;;9.77;;
52918;SDS011;38793;52.690;6.812;2023-07-28T08:59:09;12.57;;;10.38;;
52918;SDS011;38793;52.690;6.812;2023-07-28T09:04:10;14.35;;;9.23;;
52918;SDS011;38793;52.690;6.812;2023-07-28T09:06:36;16.25;;;9.07;;
52918;SDS011;38793;52.690;6.812;2023-07-28T09:11:31;13.90;;;9.00;;
52918;SDS011;38793;52.690;6.812;2023-07-28T09:16:25;14.35;;;8.90;;
52918;SDS011;38793;52.690;6.812;2023-07-28T09:21:19;12.10;;;9.15;;
52918;SDS011;38793;52.690;6.812;2023-07-28T09:23:49;13.65;;;9.27;;
52918;SDS011;38793;52.690;6.812;2023-07-28T09:26:15;13.25;;;8.38;;
52918;SDS011;38793;52.690;6.812;2023-07-28T09:28:41;14.77;;;9.35;;
52918;SDS011;38793;52.690;6.812;2023-07-28T09:31:08;12.07;;;8.70;;
52918;SDS011;38793;52.690;6.812;2023-07-28T09:33:35;14.30;;;9.90;;
52918;SDS011;38793;52.690;6.812;2023-07-28T09:36:11;12.18;;;7.95;;
52918;SDS011;38793;52.690;6.812;2023-07-28T09:38:40;11.93;;;8.32;;
52918;SDS011;38793;52.690;6.812;2023-07-28T09:43:37;13.18;;;8.85;;
52918;SDS011;38793;52.690;6.812;2023-07-28T09:46:05;8.93;;;7.57;;
52918;SDS011;38793;52.690;6.812;2023-07-28T09:48:32;10.68;;;8.25;;
52918;SDS011;38793;52.690;6.812;2023-07-28T09:51:02;14.23;;;7.65;;
52918;SDS011;38793;52.690;6.812;2023-07-28T09:53:34;10.35;;;8.32;;
52918;SDS011;38793;52.690;6.812;2023-07-28T09:56:11;14.15;;;9.43;;
52918;SDS011;38793;52.690;6.812;2023-07-28T09:58:41;12.68;;;8.70;;
52918;SDS011;38793;52.690;6.812;2023-07-28T10:01:09;10.40;;;7.95;;
52918;SDS011;38793;52.690;6.812;2023-07-28T10:03:36;9.88;;;7.28;;
52918;SDS011;38793;52.690;6.812;2023-07-28T10:06:02;8.77;;;7.32;;
52918;SDS011;38793;52.690;6.812;2023-07-28T10:10:54;8.68;;;7.30;;
52918;SDS011;38793;52.690;6.812;2023-07-28T10:13:20;9.63;;;7.55;;
52918;SDS011;38793;52.690;6.812;2023-07-28T10:15:47;16.38;;;8.82;;
52918;SDS011;38793;52.690;6.812;2023-07-28T10:18:13;9.02;;;7.65;;
52918;SDS011;38793;52.690;6.812;2023-07-28T10:23:10;10.45;;;7.38;;
52918;SDS011;38793;52.690;6.812;2023-07-28T10:25:40;12.05;;;8.13;;
52918;SDS011;38793;52.690;6.812;2023-07-28T10:31:01;10.07;;;6.53;;
52918;SDS011;38793;52.690;6.812;2023-07-28T10:33:31;8.15;;;6.07;;
52918;SDS011;38793;52.690;6.812;2023-07-28T10:36:17;8.57;;;6.72;;
52918;SDS011;38793;52.690;6.812;2023-07-28T10:39:01;6.85;;;6.18;;
52918;SDS011;38793;52.690;6.812;2023-07-28T10:41:34;8.88;;;7.25;;
52918;SDS011;38793;52.690;6.812;2023-07-28T10:44:00;7.65;;;6.88;;
52918;SDS011;38793;52.690;6.812;2023-07-28T10:46:27;7.32;;;6.60;;
52918;SDS011;38793;52.690;6.812;2023-07-28T10:53:57;1.60;;;0.65;;
52918;SDS011;38793;52.690;6.812;2023-07-28T10:56:23;4.93;;;1.27;;
52918;SDS011;38793;52.690;6.812;2023-07-28T10:59:23;3.83;;;1.65;;
52918;SDS011;38793;52.690;6.812;2023-07-28T11:01:42;5.22;;;3.33;;
52918;SDS011;38793;52.690;6.812;2023-07-28T11:06:44;2.40;;;1.90;;
52918;SDS011;38793;52.690;6.812;2023-07-28T11:09:12;4.65;;;3.20;;
52918;SDS011;38793;52.690;6.812;2023-07-28T11:11:39;2.20;;;2.10;;
52918;SDS011;38793;52.690;6.812;2023-07-28T11:14:06;9.77;;;3.92;;
52918;SDS011;38793;52.690;6.812;2023-07-28T11:16:36;19.77;;;8.27;;
52918;SDS011;38793;52.690;6.812;2023-07-28T11:19:10;10.52;;;5.85;;
52918;SDS011;38793;52.690;6.812;2023-07-28T11:21:37;4.80;;;4.40;;
52918;SDS011;38793;52.690;6.812;2023-07-28T11:24:04;5.75;;;5.32;;
52918;SDS011;38793;52.690;6.812;2023-07-28T11:26:31;10.88;;;6.53;;
52918;SDS011;38793;52.690;6.812;2023-07-28T11:28:58;6.25;;;5.60;;
52918;SDS011;38793;52.690;6.812;2023-07-28T11:31:24;6.40;;;5.63;;
52918;SDS011;38793;52.690;6.812;2023-07-28T11:33:51;7.13;;;5.00;;
52918;SDS011;38793;52.690;6.812;2023-07-28T11:36:27;5.22;;;4.13;;
52918;SDS011;38793;52.690;6.812;2023-07-28T11:38:55;3.75;;;3.45;;
52918;SDS011;38793;52.690;6.812;2023-07-28T11:41:23;5.53;;;5.03;;
52918;SDS011;38793;52.690;6.812;2023-07-28T11:43:51;5.00;;;4.38;;
52918;SDS011;38793;52.690;6.812;2023-07-28T11:46:33;4.90;;;3.60;;
52918;SDS011;38793;52.690;6.812;2023-07-28T11:51:50;7.22;;;6.60;;
52918;SDS011;38793;52.690;6.812;2023-07-28T11:54:18;9.38;;;7.20;;
52918;SDS011;38793;52.690;6.812;2023-07-28T11:56:47;9.80;;;8.82;;
52918;SDS011;38793;52.690;6.812;2023-07-28T11:59:20;12.20;;;10.35;;
52918;SDS011;38793;52.690;6.812;2023-07-28T12:01:55;12.25;;;10.15;;
52918;SDS011;38793;52.690;6.812;2023-07-28T12:04:23;11.63;;;9.95;;
52918;SDS011;38793;52.690;6.812;2023-07-28T12:09:32;8.43;;;7.50;;
52918;SDS011;38793;52.690;6.812;2023-07-28T12:12:12;7.53;;;6.82;;
52918;SDS011;38793;52.690;6.812;2023-07-28T12:14:38;6.82;;;6.22;;
52918;SDS011;38793;52.690;6.812;2023-07-28T12:19:42;11.02;;;7.65;;
52918;SDS011;38793;52.690;6.812;2023-07-28T12:22:19;9.52;;;7.55;;
52918;SDS011;38793;52.690;6.812;2023-07-28T12:24:45;6.78;;;6.10;;
52918;SDS011;38793;52.690;6.812;2023-07-28T12:27:11;11.73;;;7.90;;
52918;SDS011;38793;52.690;6.812;2023-07-28T12:29:38;11.43;;;6.85;;
52918;SDS011;38793;52.690;6.812;2023-07-28T12:32:04;9.18;;;7.05;;
52918;SDS011;38793;52.690;6.812;2023-07-28T12:34:30;8.48;;;7.03;;
52918;SDS011;38793;52.690;6.812;2023-07-28T12:36:55;7.47;;;5.05;;
52918;SDS011;38793;52.690;6.812;2023-07-28T12:39:21;8.48;;;4.68;;
52918;SDS011;38793;52.690;6.812;2023-07-28T12:41:48;6.25;;;4.15;;
52918;SDS011;38793;52.690;6.812;2023-07-28T12:44:19;4.95;;;4.55;;
52918;SDS011;38793;52.690;6.812;2023-07-28T12:46:45;9.15;;;4.10;;
52918;SDS011;38793;52.690;6.812;2023-07-28T12:49:10;5.65;;;3.10;;
52918;SDS011;38793;52.690;6.812;2023-07-28T12:51:36;7.60;;;3.53;;
52918;SDS011;38793;52.690;6.812;2023-07-28T12:54:02;3.08;;;2.38;;
52918;SDS011;38793;52.690;6.812;2023-07-28T12:56:27;4.15;;;2.60;;
52918;SDS011;38793;52.690;6.812;2023-07-28T12:58:53;4.40;;;2.97;;
52918;SDS011;38793;52.690;6.812;2023-07-28T13:01:19;6.03;;;3.22;;
52918;SDS011;38793;52.690;6.812;2023-07-28T13:03:44;4.85;;;3.80;;
52918;SDS011;38793;52.690;6.812;2023-07-28T13:06:10;6.22;;;4.20;;
52918;SDS011;38793;52.690;6.812;2023-07-28T13:08:35;6.05;;;3.90;;
52918;SDS011;38793;52.690;6.812;2023-07-28T13:11:01;3.10;;;2.90;;
52918;SDS011;38793;52.690;6.812;2023-07-28T13:13:27;4.50;;;2.95;;
52918;SDS011;38793;52.690;6.812;2023-07-28T13:15:55;2.80;;;2.53;;
52918;SDS011;38793;52.690;6.812;2023-07-28T13:18:21;6.18;;;2.15;;
52918;SDS011;38793;52.690;6.812;2023-07-28T13:20:46;2.70;;;1.70;;
52918;SDS011;38793;52.690;6.812;2023-07-28T13:23:12;3.55;;;2.00;;
52918;SDS011;38793;52.690;6.812;2023-07-28T13:25:37;3.53;;;2.03;;
52918;SDS011;38793;52.690;6.812;2023-07-28T13:28:03;5.53;;;2.30;;
52918;SDS011;38793;52.690;6.812;2023-07-28T13:30:29;3.50;;;2.20;;
52918;SDS011;38793;52.690;6.812;2023-07-28T13:32:55;4.20;;;1.80;;
52918;SDS011;38793;52.690;6.812;2023-07-28T13:35:21;5.43;;;2.17;;
52918;SDS011;38793;52.690;6.812;2023-07-28T13:37:47;4.22;;;2.13;;
52918;SDS011;38793;52.690;6.812;2023-07-28T13:40:13;2.97;;;1.65;;
52918;SDS011;38793;52.690;6.812;2023-07-28T13:42:39;3.65;;;2.33;;
52918;SDS011;38793;52.690;6.812;2023-07-28T13:45:05;6.05;;;2.85;;
52918;SDS011;38793;52.690;6.812;2023-07-28T13:47:31;3.88;;;2.47;;
52918;SDS011;38793;52.690;6.812;2023-07-28T13:49:56;4.15;;;2.58;;
52918;SDS011;38793;52.690;6.812;2023-07-28T13:52:22;2.40;;;2.15;;
52918;SDS011;38793;52.690;6.812;2023-07-28T13:54:47;3.92;;;1.73;;
52918;SDS011;38793;52.690;6.812;2023-07-28T13:57:13;2.40;;;1.50;;
52918;SDS011;38793;52.690;6.812;2023-07-28T13:59:39;1.52;;;1.17;;
52918;SDS011;38793;52.690;6.812;2023-07-28T14:02:05;5.22;;;2.10;;
52918;SDS011;38793;52.690;6.812;2023-07-28T14:04:30;3.38;;;1.67;;
52918;SDS011;38793;52.690;6.812;2023-07-28T14:06:56;2.25;;;1.45;;
52918;SDS011;38793;52.690;6.812;2023-07-28T14:09:23;2.05;;;1.80;;
52918;SDS011;38793;52.690;6.812;2023-07-28T14:11:49;4.05;;;2.13;;
52918;SDS011;38793;52.690;6.812;2023-07-28T14:14:14;2.25;;;1.38;;
52918;SDS011;38793;52.690;6.812;2023-07-28T14:16:40;3.33;;;1.35;;
52918;SDS011;38793;52.690;6.812;2023-07-28T14:19:07;3.25;;;1.92;;
52918;SDS011;38793;52.690;6.812;2023-07-28T14:21:33;3.17;;;1.60;;
52918;SDS011;38793;52.690;6.812;2023-07-28T14:23:58;3.13;;;1.92;;
52918;SDS011;38793;52.690;6.812;2023-07-28T14:26:24;8.57;;;3.40;;
52918;SDS011;38793;52.690;6.812;2023-07-28T14:28:49;6.38;;;2.58;;
52918;SDS011;38793;52.690;6.812;2023-07-28T14:31:15;5.93;;;2.72;;
52918;SDS011;38793;52.690;6.812;2023-07-28T14:33:41;3.38;;;3.08;;
52918;SDS011;38793;52.690;6.812;2023-07-28T14:36:06;4.55;;;3.50;;
52918;SDS011;38793;52.690;6.812;2023-07-28T14:38:32;21.85;;;8.27;;
52918;SDS011;38793;52.690;6.812;2023-07-28T14:40:57;45.05;;;16.65;;
52918;SDS011;38793;52.690;6.812;2023-07-28T14:43:23;5.28;;;2.97;;
52918;SDS011;38793;52.690;6.812;2023-07-28T14:45:50;28.10;;;7.25;;
52918;SDS011;38793;52.690;6.812;2023-07-28T14:48:16;4.65;;;2.08;;
52918;SDS011;38793;52.690;6.812;2023-07-28T14:50:42;2.15;;;1.60;;
52918;SDS011;38793;52.690;6.812;2023-07-28T14:55:53;4.20;;;2.75;;
52918;SDS011;38793;52.690;6.812;2023-07-28T14:58:19;4.40;;;2.97;;
52918;SDS011;38793;52.690;6.812;2023-07-28T15:00:46;12.23;;;4.93;;
52918;SDS011;38793;52.690;6.812;2023-07-28T15:03:11;3.90;;;2.60;;
52918;SDS011;38793;52.690;6.812;2023-07-28T15:05:37;4.78;;;3.50;;
52918;SDS011;38793;52.690;6.812;2023-07-28T15:08:03;2.17;;;2.00;;
52918;SDS011;38793;52.690;6.812;2023-07-28T15:10:28;1.77;;;1.67;;
52918;SDS011;38793;52.690;6.812;2023-07-28T15:12:54;4.20;;;1.83;;
52918;SDS011;38793;52.690;6.812;2023-07-28T15:15:20;3.55;;;2.33;;
52918;SDS011;38793;52.690;6.812;2023-07-28T15:17:45;2.15;;;1.95;;
52918;SDS011;38793;52.690;6.812;2023-07-28T15:20:11;2.60;;;1.73;;
52918;SDS011;38793;52.690;6.812;2023-07-28T15:22:36;2.72;;;1.88;;
52918;SDS011;38793;52.690;6.812;2023-07-28T15:25:02;4.05;;;2.80;;
52918;SDS011;38793;52.690;6.812;2023-07-28T15:27:28;3.97;;;2.25;;
52918;SDS011;38793;52.690;6.812;2023-07-28T15:29:54;5.60;;;3.72;;
52918;SDS011;38793;52.690;6.812;2023-07-28T15:32:19;3.58;;;2.28;;
52918;SDS011;38793;52.690;6.812;2023-07-28T15:34:45;3.28;;;2.60;;
52918;SDS011;38793;52.690;6.812;2023-07-28T15:37:10;2.97;;;2.28;;
52918;SDS011;38793;52.690;6.812;2023-07-28T15:39:36;2.65;;;2.20;;
52918;SDS011;38793;52.690;6.812;2023-07-28T15:42:02;2.75;;;2.55;;
52918;SDS011;38793;52.690;6.812;2023-07-28T15:44:27;4.43;;;3.33;;
52918;SDS011;38793;52.690;6.812;2023-07-28T15:46:53;2.92;;;2.58;;
52918;SDS011;38793;52.690;6.812;2023-07-28T15:49:18;13.73;;;4.18;;
52918;SDS011;38793;52.690;6.812;2023-07-28T15:51:44;4.32;;;2.70;;
52918;SDS011;38793;52.690;6.812;2023-07-28T15:54:10;1.83;;;1.52;;
52918;SDS011;38793;52.690;6.812;2023-07-28T15:56:36;1.98;;;1.50;;
52918;SDS011;38793;52.690;6.812;2023-07-28T15:59:01;2.95;;;1.70;;
52918;SDS011;38793;52.690;6.812;2023-07-28T16:01:27;3.97;;;1.67;;
52918;SDS011;38793;52.690;6.812;2023-07-28T16:03:53;3.53;;;2.15;;
52918;SDS011;38793;52.690;6.812;2023-07-28T16:06:18;1.60;;;0.80;;